This is the latest recevied weather packets stored in our database for station/object KAGO. If no packets are shown the sender has not sent any weather packets the latest 1 day(s).
| Time | Temp. | Humidity | Pressure | Rain* | Wind** | Luminosity | Snow |
|---|---|---|---|---|---|---|---|
| 1778022807 | 27.78° C | 65% | 1004.7 hPa | - | 5.81 m/s, 180° | - | - |
| 1778022323 | 27.78° C | 65% | 1004.7 hPa | - | 5.81 m/s, 180° | - | - |
| 1778021608 | 27.78° C | 65% | 1005.1 hPa | - | 5.36 m/s, 200° | - | - |
| 1778021003 | 27.78° C | 65% | 1005.1 hPa | - | 5.36 m/s, 200° | - | - |
| 1778020405 | 27.78° C | 65% | 1004.7 hPa | - | 5.36 m/s, 190° | - | - |
| 1778019803 | 27.78° C | 65% | 1004.7 hPa | - | 5.36 m/s, 190° | - | - |
| 1778019204 | 28.89° C | 62% | 1005.1 hPa | - | 6.71 m/s, 200° | - | - |
| 1778018725 | 28.89° C | 62% | 1005.1 hPa | - | 6.71 m/s, 200° | - | - |
| 1778018008 | 27.78° C | 65% | 1005.1 hPa | - | 7.15 m/s, 210° | - | - |
| 1778017408 | 27.78° C | 65% | 1005.1 hPa | - | 7.15 m/s, 210° | - | - |
| 1778016807 | 27.78° C | 65% | 1005.4 hPa | - | 5.81 m/s, 200° | - | - |
| 1778016204 | 27.78° C | 65% | 1005.4 hPa | - | 4.92 m/s, 210° | - | - |
| 1778015605 | 27.78° C | 65% | 1005.4 hPa | - | 4.92 m/s, 210° | - | - |
| 1778015005 | 27.78° C | 65% | 1005.4 hPa | - | 4.92 m/s, 210° | - | - |
| 1778014403 | 26.67° C | 69% | 1005.8 hPa | - | 7.15 m/s, 200° | - | - |
| 1778013807 | 26.67° C | 69% | 1005.8 hPa | - | 7.15 m/s, 200° | - | - |
| 1778013205 | 27.78° C | 61% | 1005.8 hPa | - | 5.81 m/s, 220° | - | - |
| 1778012609 | 27.78° C | 61% | 1005.8 hPa | - | 5.81 m/s, 220° | - | - |
| 1778012004 | 26.67° C | 65% | 1005.4 hPa | - | 7.6 m/s, 220° | - | - |
| 1778011403 | 26.67° C | 65% | 1005.4 hPa | - | 7.6 m/s, 220° | - | - |
| 1778010806 | 26.67° C | 69% | 1005.1 hPa | - | 7.6 m/s, 180° | - | - |
| 1778010207 | 26.67° C | 69% | 1005.1 hPa | - | 7.6 m/s, 180° | - | - |
| 1778009603 | 25.56° C | 74% | 1006.1 hPa | - | 7.6 m/s, 210° | - | - |
| 1778009006 | 25.56° C | 74% | 1006.1 hPa | - | 7.6 m/s, 210° | - | - |
| 1778008405 | 25.56° C | 74% | 1006.4 hPa | - | 6.71 m/s, 200° | - | - |
* Rain since midnight (hover to see other rain measurements)
** Current wind speed in m/s (hover to see current wind gust speed)